sensor_id;sensor_type;location;lat;lon;timestamp;pressure;altitude;pressure_sealevel;temperature
75273;BMP280;63869;52.344;16.928;2023-03-21T00:01:28;100732.81;;;11.31
75273;BMP280;63869;52.344;16.928;2023-03-21T00:03:54;100724.91;;;11.24
75273;BMP280;63869;52.344;16.928;2023-03-21T00:06:19;100727.09;;;11.29
75273;BMP280;63869;52.344;16.928;2023-03-21T00:08:45;100731.97;;;11.34
75273;BMP280;63869;52.344;16.928;2023-03-21T00:11:11;100733.53;;;11.35
75273;BMP280;63869;52.344;16.928;2023-03-21T00:13:37;100729.69;;;11.33
75273;BMP280;63869;52.344;16.928;2023-03-21T00:16:08;100734.28;;;11.36
75273;BMP280;63869;52.344;16.928;2023-03-21T00:18:35;100728.53;;;11.34
75273;BMP280;63869;52.344;16.928;2023-03-21T00:21:04;100728.16;;;11.35
75273;BMP280;63869;52.344;16.928;2023-03-21T00:23:31;100731.94;;;11.38
75273;BMP280;63869;52.344;16.928;2023-03-21T00:25:58;100731.88;;;11.41
75273;BMP280;63869;52.344;16.928;2023-03-21T00:28:24;100733.13;;;11.37
75273;BMP280;63869;52.344;16.928;2023-03-21T00:30:50;100728.94;;;11.32
75273;BMP280;63869;52.344;16.928;2023-03-21T00:33:15;100714.94;;;11.25
75273;BMP280;63869;52.344;16.928;2023-03-21T00:35:45;100717.69;;;11.21
75273;BMP280;63869;52.344;16.928;2023-03-21T00:38:13;100724.91;;;11.24
75273;BMP280;63869;52.344;16.928;2023-03-21T00:40:38;100731.00;;;11.25
75273;BMP280;63869;52.344;16.928;2023-03-21T00:43:04;100724.97;;;11.17
75273;BMP280;63869;52.344;16.928;2023-03-21T00:45:29;100723.50;;;11.16
75273;BMP280;63869;52.344;16.928;2023-03-21T00:47:56;100723.88;;;11.15
75273;BMP280;63869;52.344;16.928;2023-03-21T00:50:23;100720.97;;;11.05
75273;BMP280;63869;52.344;16.928;2023-03-21T00:52:48;100725.94;;;11.07
75273;BMP280;63869;52.344;16.928;2023-03-21T00:55:15;100722.09;;;11.08
75273;BMP280;63869;52.344;16.928;2023-03-21T00:57:41;100724.06;;;11.04
75273;BMP280;63869;52.344;16.928;2023-03-21T01:00:09;100726.41;;;10.98
75273;BMP280;63869;52.344;16.928;2023-03-21T01:02:35;100719.59;;;10.94
75273;BMP280;63869;52.344;16.928;2023-03-21T01:05:03;100722.75;;;10.89
75273;BMP280;63869;52.344;16.928;2023-03-21T01:07:28;100725.03;;;10.90
75273;BMP280;63869;52.344;16.928;2023-03-21T01:09:54;100717.00;;;10.90
75273;BMP280;63869;52.344;16.928;2023-03-21T01:12:19;100720.84;;;10.89
75273;BMP280;63869;52.344;16.928;2023-03-21T01:14:44;100720.84;;;10.86
75273;BMP280;63869;52.344;16.928;2023-03-21T01:17:10;100724.78;;;10.78
75273;BMP280;63869;52.344;16.928;2023-03-21T01:19:36;100725.97;;;10.77
75273;BMP280;63869;52.344;16.928;2023-03-21T01:22:01;100730.63;;;10.73
75273;BMP280;63869;52.344;16.928;2023-03-21T01:24:26;100721.50;;;10.66
75273;BMP280;63869;52.344;16.928;2023-03-21T01:26:53;100722.72;;;10.62
75273;BMP280;63869;52.344;16.928;2023-03-21T01:29:19;100720.03;;;10.62
75273;BMP280;63869;52.344;16.928;2023-03-21T01:31:45;100723.06;;;10.64
75273;BMP280;63869;52.344;16.928;2023-03-21T01:34:10;100722.28;;;10.67
75273;BMP280;63869;52.344;16.928;2023-03-21T01:36:36;100722.59;;;10.73
75273;BMP280;63869;52.344;16.928;2023-03-21T01:39:02;100718.47;;;10.64
75273;BMP280;63869;52.344;16.928;2023-03-21T01:41:28;100727.25;;;10.65
75273;BMP280;63869;52.344;16.928;2023-03-21T01:43:55;100722.31;;;10.63
75273;BMP280;63869;52.344;16.928;2023-03-21T01:49:11;100723.78;;;10.68
75273;BMP280;63869;52.344;16.928;2023-03-21T01:51:43;100720.69;;;10.69
75273;BMP280;63869;52.344;16.928;2023-03-21T01:54:15;100724.50;;;10.72
75273;BMP280;63869;52.344;16.928;2023-03-21T01:56:42;100715.50;;;10.59
75273;BMP280;63869;52.344;16.928;2023-03-21T01:59:19;100711.72;;;10.56
75273;BMP280;63869;52.344;16.928;2023-03-21T02:01:49;100717.78;;;10.60
75273;BMP280;63869;52.344;16.928;2023-03-21T02:04:16;100707.03;;;10.64
75273;BMP280;63869;52.344;16.928;2023-03-21T02:09:20;100707.50;;;10.55
75273;BMP280;63869;52.344;16.928;2023-03-21T02:11:47;100709.13;;;10.49
75273;BMP280;63869;52.344;16.928;2023-03-21T02:14:16;100710.19;;;10.55
75273;BMP280;63869;52.344;16.928;2023-03-21T02:16:48;100708.25;;;10.59
75273;BMP280;63869;52.344;16.928;2023-03-21T02:31:04;100710.34;;;10.71
75273;BMP280;63869;52.344;16.928;2023-03-21T02:36:45;100718.38;;;10.71
75273;BMP280;63869;52.344;16.928;2023-03-21T02:42:31;100709.66;;;10.67
75273;BMP280;63869;52.344;16.928;2023-03-21T02:47:24;100699.47;;;10.55
75273;BMP280;63869;52.344;16.928;2023-03-21T02:52:31;100705.66;;;10.52
75273;BMP280;63869;52.344;16.928;2023-03-21T02:54:59;100717.94;;;10.46
75273;BMP280;63869;52.344;16.928;2023-03-21T02:57:26;100714.19;;;10.44
75273;BMP280;63869;52.344;16.928;2023-03-21T02:59:52;100716.03;;;10.47
75273;BMP280;63869;52.344;16.928;2023-03-21T03:02:23;100712.97;;;10.48
75273;BMP280;63869;52.344;16.928;2023-03-21T03:04:49;100714.84;;;10.51
75273;BMP280;63869;52.344;16.928;2023-03-21T03:07:19;100722.50;;;10.49
75273;BMP280;63869;52.344;16.928;2023-03-21T03:15:49;100715.63;;;10.48
75273;BMP280;63869;52.344;16.928;2023-03-21T03:26:37;100712.59;;;10.46
75273;BMP280;63869;52.344;16.928;2023-03-21T03:29:06;100720.28;;;10.44
75273;BMP280;63869;52.344;16.928;2023-03-21T03:31:35;100724.00;;;10.50
75273;BMP280;63869;52.344;16.928;2023-03-21T03:34:08;100724.78;;;10.51
75273;BMP280;63869;52.344;16.928;2023-03-21T03:36:39;100720.94;;;10.52
75273;BMP280;63869;52.344;16.928;2023-03-21T03:39:08;100720.09;;;10.58
75273;BMP280;63869;52.344;16.928;2023-03-21T03:41:41;100723.13;;;10.60
75273;BMP280;63869;52.344;16.928;2023-03-21T03:44:09;100728.50;;;10.60
75273;BMP280;63869;52.344;16.928;2023-03-21T03:49:24;100719.75;;;10.53
75273;BMP280;63869;52.344;16.928;2023-03-21T03:52:08;100729.28;;;10.54
75273;BMP280;63869;52.344;16.928;2023-03-21T03:54:45;100728.19;;;10.51
75273;BMP280;63869;52.344;16.928;2023-03-21T03:57:12;100732.03;;;10.50
75273;BMP280;63869;52.344;16.928;2023-03-21T03:59:40;100733.53;;;10.51
75273;BMP280;63869;52.344;16.928;2023-03-21T04:02:06;100734.25;;;10.55
75273;BMP280;63869;52.344;16.928;2023-03-21T04:04:32;100738.47;;;10.56
75273;BMP280;63869;52.344;16.928;2023-03-21T04:06:58;100729.22;;;10.61
75273;BMP280;63869;52.344;16.928;2023-03-21T04:09:25;100734.63;;;10.57
75273;BMP280;63869;52.344;16.928;2023-03-21T04:11:53;100733.94;;;10.50
75273;BMP280;63869;52.344;16.928;2023-03-21T04:14:18;100738.19;;;10.47
75273;BMP280;63869;52.344;16.928;2023-03-21T04:16:44;100735.13;;;10.45
75273;BMP280;63869;52.344;16.928;2023-03-21T04:19:09;100740.84;;;10.47
75273;BMP280;63869;52.344;16.928;2023-03-21T04:21:34;100734.06;;;10.43
75273;BMP280;63869;52.344;16.928;2023-03-21T04:24:01;100734.81;;;10.43
75273;BMP280;63869;52.344;16.928;2023-03-21T04:26:26;100741.66;;;10.44
75273;BMP280;63869;52.344;16.928;2023-03-21T04:28:57;100743.91;;;10.46
75273;BMP280;63869;52.344;16.928;2023-03-21T04:31:25;100740.47;;;10.45
75273;BMP280;63869;52.344;16.928;2023-03-21T04:33:52;100735.22;;;10.38
75273;BMP280;63869;52.344;16.928;2023-03-21T04:36:20;100737.88;;;10.42
75273;BMP280;63869;52.344;16.928;2023-03-21T04:38:52;100733.00;;;10.33
75273;BMP280;63869;52.344;16.928;2023-03-21T04:41:17;100739.50;;;10.32
75273;BMP280;63869;52.344;16.928;2023-03-21T04:43:43;100745.59;;;10.32
75273;BMP280;63869;52.344;16.928;2023-03-21T04:46:08;100748.22;;;10.36
75273;BMP280;63869;52.344;16.928;2023-03-21T04:48:34;100740.25;;;10.32
75273;BMP280;63869;52.344;16.928;2023-03-21T04:50:59;100750.09;;;10.39
75273;BMP280;63869;52.344;16.928;2023-03-21T04:53:24;100754.31;;;10.40
75273;BMP280;63869;52.344;16.928;2023-03-21T04:55:50;100745.50;;;10.40
75273;BMP280;63869;52.344;16.928;2023-03-21T04:58:15;100746.28;;;10.40
75273;BMP280;63869;52.344;16.928;2023-03-21T05:00:41;100735.31;;;10.31
75273;BMP280;63869;52.344;16.928;2023-03-21T05:03:07;100755.06;;;10.37
75273;BMP280;63869;52.344;16.928;2023-03-21T05:05:34;100747.41;;;10.39
75273;BMP280;63869;52.344;16.928;2023-03-21T05:08:00;100753.09;;;10.45
75273;BMP280;63869;52.344;16.928;2023-03-21T05:10:26;100756.19;;;10.40
75273;BMP280;63869;52.344;16.928;2023-03-21T05:12:52;100753.91;;;10.38
75273;BMP280;63869;52.344;16.928;2023-03-21T05:15:17;100758.50;;;10.38
75273;BMP280;63869;52.344;16.928;2023-03-21T05:17:42;100752.00;;;10.42
75273;BMP280;63869;52.344;16.928;2023-03-21T05:20:09;100753.16;;;10.41
75273;BMP280;63869;52.344;16.928;2023-03-21T05:22:35;100758.03;;;10.46
75273;BMP280;63869;52.344;16.928;2023-03-21T05:25:08;100756.84;;;10.51
75273;BMP280;63869;52.344;16.928;2023-03-21T05:27:34;100762.59;;;10.49
75273;BMP280;63869;52.344;16.928;2023-03-21T05:30:12;100762.59;;;10.49
75273;BMP280;63869;52.344;16.928;2023-03-21T05:32:38;100765.25;;;10.49
75273;BMP280;63869;52.344;16.928;2023-03-21T05:35:04;100761.44;;;10.50
75273;BMP280;63869;52.344;16.928;2023-03-21T05:37:29;100763.00;;;10.48
75273;BMP280;63869;52.344;16.928;2023-03-21T05:39:55;100760.72;;;10.46
75273;BMP280;63869;52.344;16.928;2023-03-21T05:42:20;100765.63;;;10.51
75273;BMP280;63869;52.344;16.928;2023-03-21T05:44:46;100749.72;;;10.41
75273;BMP280;63869;52.344;16.928;2023-03-21T05:47:12;100765.97;;;10.53
75273;BMP280;63869;52.344;16.928;2023-03-21T05:49:38;100765.97;;;10.53
75273;BMP280;63869;52.344;16.928;2023-03-21T05:52:03;100770.53;;;10.56
75273;BMP280;63869;52.344;16.928;2023-03-21T05:54:28;100766.66;;;10.61
75273;BMP280;63869;52.344;16.928;2023-03-21T05:56:54;100762.06;;;10.61
75273;BMP280;63869;52.344;16.928;2023-03-21T05:59:19;100772.31;;;10.66
75273;BMP280;63869;52.344;16.928;2023-03-21T06:01:45;100773.47;;;10.65
75273;BMP280;63869;52.344;16.928;2023-03-21T06:04:10;100758.38;;;10.52
75273;BMP280;63869;52.344;16.928;2023-03-21T06:06:36;100788.28;;;10.70
75273;BMP280;63869;52.344;16.928;2023-03-21T06:09:01;100777.28;;;10.68
75273;BMP280;63869;52.344;16.928;2023-03-21T06:11:32;100786.22;;;10.85
75273;BMP280;63869;52.344;16.928;2023-03-21T06:13:58;100787.31;;;10.91
75273;BMP280;63869;52.344;16.928;2023-03-21T06:16:24;100791.91;;;10.90
75273;BMP280;63869;52.344;16.928;2023-03-21T06:18:49;100788.47;;;10.90
75273;BMP280;63869;52.344;16.928;2023-03-21T06:21:15;100791.72;;;10.70
75273;BMP280;63869;52.344;16.928;2023-03-21T06:23:40;100786.19;;;10.54
75273;BMP280;63869;52.344;16.928;2023-03-21T06:26:07;100781.00;;;10.44
75273;BMP280;63869;52.344;16.928;2023-03-21T06:28:32;100797.84;;;10.37
75273;BMP280;63869;52.344;16.928;2023-03-21T06:30:57;100790.72;;;10.27
75273;BMP280;63869;52.344;16.928;2023-03-21T06:33:23;100786.22;;;10.17
75273;BMP280;63869;52.344;16.928;2023-03-21T06:35:56;100797.72;;;10.14
75273;BMP280;63869;52.344;16.928;2023-03-21T06:38:22;100793.09;;;10.18
75273;BMP280;63869;52.344;16.928;2023-03-21T06:40:48;100789.69;;;10.14
75273;BMP280;63869;52.344;16.928;2023-03-21T06:43:15;100794.25;;;10.17
75273;BMP280;63869;52.344;16.928;2023-03-21T06:45:40;100796.91;;;10.17
75273;BMP280;63869;52.344;16.928;2023-03-21T06:48:06;100795.41;;;10.16
75273;BMP280;63869;52.344;16.928;2023-03-21T06:50:31;100809.13;;;10.18
75273;BMP280;63869;52.344;16.928;2023-03-21T06:52:57;100795.41;;;10.16
75273;BMP280;63869;52.344;16.928;2023-03-21T06:55:24;100790.09;;;10.12
75273;BMP280;63869;52.344;16.928;2023-03-21T06:57:51;100794.16;;;10.24
75273;BMP280;63869;52.344;16.928;2023-03-21T07:00:18;100800.66;;;10.23
75273;BMP280;63869;52.344;16.928;2023-03-21T07:02:43;100809.00;;;10.28
75273;BMP280;63869;52.344;16.928;2023-03-21T07:05:08;100806.75;;;10.27
75273;BMP280;63869;52.344;16.928;2023-03-21T07:07:34;100808.31;;;10.21
75273;BMP280;63869;52.344;16.928;2023-03-21T07:09:59;100798.53;;;10.11
75273;BMP280;63869;52.344;16.928;2023-03-21T07:12:26;100808.78;;;10.12
75273;BMP280;63869;52.344;16.928;2023-03-21T07:14:51;100804.03;;;9.93
75273;BMP280;63869;52.344;16.928;2023-03-21T07:17:17;100818.06;;;10.00
75273;BMP280;63869;52.344;16.928;2023-03-21T07:19:42;100808.56;;;9.96
75273;BMP280;63869;52.344;16.928;2023-03-21T07:22:08;100812.75;;;9.97
75273;BMP280;63869;52.344;16.928;2023-03-21T07:24:33;100824.56;;;9.99
75273;BMP280;63869;52.344;16.928;2023-03-21T07:26:59;100814.28;;;9.94
75273;BMP280;63869;52.344;16.928;2023-03-21T07:29:24;100828.69;;;10.04
75273;BMP280;63869;52.344;16.928;2023-03-21T07:31:51;100829.81;;;10.07
75273;BMP280;63869;52.344;16.928;2023-03-21T07:34:16;100836.75;;;10.00
75273;BMP280;63869;52.344;16.928;2023-03-21T07:36:44;100834.00;;;10.11
75273;BMP280;63869;52.344;16.928;2023-03-21T07:39:10;100839.06;;;10.43
75273;BMP280;63869;52.344;16.928;2023-03-21T07:41:36;100835.00;;;10.62
75273;BMP280;63869;52.344;16.928;2023-03-21T07:44:01;100825.34;;;10.71
75273;BMP280;63869;52.344;16.928;2023-03-21T07:46:27;100805.53;;;10.69
75273;BMP280;63869;52.344;16.928;2023-03-21T07:48:53;100834.19;;;10.99
75273;BMP280;63869;52.344;16.928;2023-03-21T07:51:18;100826.88;;;11.03
75273;BMP280;63869;52.344;16.928;2023-03-21T07:53:43;100837.25;;;11.28
75273;BMP280;63869;52.344;16.928;2023-03-21T07:56:14;100838.84;;;11.49
75273;BMP280;63869;52.344;16.928;2023-03-21T07:58:40;100832.25;;;11.57
75273;BMP280;63869;52.344;16.928;2023-03-21T08:01:06;100837.06;;;11.69
75273;BMP280;63869;52.344;16.928;2023-03-21T08:03:32;100849.84;;;11.81
75273;BMP280;63869;52.344;16.928;2023-03-21T08:05:58;100842.72;;;11.94
75273;BMP280;63869;52.344;16.928;2023-03-21T08:08:25;100833.88;;;11.97
75273;BMP280;63869;52.344;16.928;2023-03-21T08:10:50;100834.19;;;12.03
75273;BMP280;63869;52.344;16.928;2023-03-21T08:13:16;100852.19;;;12.22
75273;BMP280;63869;52.344;16.928;2023-03-21T08:15:41;100851.44;;;12.22
75273;BMP280;63869;52.344;16.928;2023-03-21T08:18:07;100839.44;;;12.06
75273;BMP280;63869;52.344;16.928;2023-03-21T08:20:33;100835.41;;;11.98
75273;BMP280;63869;52.344;16.928;2023-03-21T08:22:58;100845.66;;;12.03
75273;BMP280;63869;52.344;16.928;2023-03-21T08:25:24;100843.47;;;11.95
75273;BMP280;63869;52.344;16.928;2023-03-21T08:27:50;100853.56;;;11.87
75273;BMP280;63869;52.344;16.928;2023-03-21T08:30:18;100859.34;;;11.86
75273;BMP280;63869;52.344;16.928;2023-03-21T08:32:44;100859.78;;;11.84
75273;BMP280;63869;52.344;16.928;2023-03-21T08:35:11;100858.47;;;11.69
75273;BMP280;63869;52.344;16.928;2023-03-21T08:37:38;100864.13;;;11.74
75273;BMP280;63869;52.344;16.928;2023-03-21T08:40:08;100865.69;;;11.72
75273;BMP280;63869;52.344;16.928;2023-03-21T08:42:39;100867.19;;;11.73
75273;BMP280;63869;52.344;16.928;2023-03-21T08:45:05;100869.88;;;11.73
75273;BMP280;63869;52.344;16.928;2023-03-21T08:47:32;100864.38;;;11.84
75273;BMP280;63869;52.344;16.928;2023-03-21T08:49:58;100867.19;;;11.96
75273;BMP280;63869;52.344;16.928;2023-03-21T08:52:24;100863.53;;;12.10
75273;BMP280;63869;52.344;16.928;2023-03-21T08:54:50;100873.78;;;12.15
75273;BMP280;63869;52.344;16.928;2023-03-21T08:57:15;100861.72;;;12.27
75273;BMP280;63869;52.344;16.928;2023-03-21T08:59:41;100871.22;;;12.31
75273;BMP280;63869;52.344;16.928;2023-03-21T09:02:06;100872.06;;;12.25
75273;BMP280;63869;52.344;16.928;2023-03-21T09:04:32;100863.78;;;12.39
75273;BMP280;63869;52.344;16.928;2023-03-21T09:06:58;100866.13;;;12.57
75273;BMP280;63869;52.344;16.928;2023-03-21T09:09:28;100875.75;;;12.74
75273;BMP280;63869;52.344;16.928;2023-03-21T09:11:53;100879.25;;;12.71
75273;BMP280;63869;52.344;16.928;2023-03-21T09:14:19;100871.69;;;12.85
75273;BMP280;63869;52.344;16.928;2023-03-21T09:16:44;100881.72;;;13.01
75273;BMP280;63869;52.344;16.928;2023-03-21T09:19:10;100875.59;;;13.01
75273;BMP280;63869;52.344;16.928;2023-03-21T09:21:35;100887.88;;;13.18
75273;BMP280;63869;52.344;16.928;2023-03-21T09:24:02;100883.72;;;13.33
75273;BMP280;63869;52.344;16.928;2023-03-21T09:26:30;100883.56;;;13.40
75273;BMP280;63869;52.344;16.928;2023-03-21T09:28:58;100875.84;;;13.42
75273;BMP280;63869;52.344;16.928;2023-03-21T09:31:26;100885.31;;;13.47
75273;BMP280;63869;52.344;16.928;2023-03-21T09:33:52;100874.34;;;13.57
75273;BMP280;63869;52.344;16.928;2023-03-21T09:36:18;100879.28;;;13.75
75273;BMP280;63869;52.344;16.928;2023-03-21T09:38:46;100883.13;;;13.90
75273;BMP280;63869;52.344;16.928;2023-03-21T09:49:31;100876.47;;;13.95
75273;BMP280;63869;52.344;16.928;2023-03-21T09:52:02;100875.31;;;13.96
75273;BMP280;63869;52.344;16.928;2023-03-21T09:54:39;100885.16;;;14.03
75273;BMP280;63869;52.344;16.928;2023-03-21T09:57:30;100876.81;;;13.97
75273;BMP280;63869;52.344;16.928;2023-03-21T09:59:58;100880.34;;;14.10
75273;BMP280;63869;52.344;16.928;2023-03-21T10:02:52;100885.25;;;14.28
75273;BMP280;63869;52.344;16.928;2023-03-21T10:05:28;100877.72;;;14.36
75273;BMP280;63869;52.344;16.928;2023-03-21T10:08:15;100878.16;;;14.47
75273;BMP280;63869;52.344;16.928;2023-03-21T10:10:49;100877.03;;;14.60
75273;BMP280;63869;52.344;16.928;2023-03-21T10:13:22;100870.72;;;14.67
75273;BMP280;63869;52.344;16.928;2023-03-21T10:15:48;100867.38;;;14.76
75273;BMP280;63869;52.344;16.928;2023-03-21T10:18:21;100870.19;;;14.85
75273;BMP280;63869;52.344;16.928;2023-03-21T10:20:49;100873.31;;;14.96
75273;BMP280;63869;52.344;16.928;2023-03-21T10:23:16;100870.72;;;14.92
75273;BMP280;63869;52.344;16.928;2023-03-21T10:25:46;100871.38;;;14.84
75273;BMP280;63869;52.344;16.928;2023-03-21T10:28:24;100868.44;;;14.78
75273;BMP280;63869;52.344;16.928;2023-03-21T10:30:55;100866.53;;;14.91
75273;BMP280;63869;52.344;16.928;2023-03-21T10:33:27;100869.13;;;15.07
75273;BMP280;63869;52.344;16.928;2023-03-21T10:35:58;100861.47;;;15.19
75273;BMP280;63869;52.344;16.928;2023-03-21T10:38:25;100867.63;;;15.32
75273;BMP280;63869;52.344;16.928;2023-03-21T10:40:51;100868.66;;;15.47
75273;BMP280;63869;52.344;16.928;2023-03-21T10:45:57;100873.53;;;15.74
75273;BMP280;63869;52.344;16.928;2023-03-21T10:48:23;100866.78;;;15.69
75273;BMP280;63869;52.344;16.928;2023-03-21T10:50:50;100872.16;;;15.69
75273;BMP280;63869;52.344;16.928;2023-03-21T10:53:20;100870.97;;;15.70
75273;BMP280;63869;52.344;16.928;2023-03-21T10:55:50;100872.25;;;15.78
75273;BMP280;63869;52.344;16.928;2023-03-21T10:58:24;100877.22;;;16.02
75273;BMP280;63869;52.344;16.928;2023-03-21T11:01:06;100868.06;;;15.77
75273;BMP280;63869;52.344;16.928;2023-03-21T11:03:38;100865.88;;;16.07
75273;BMP280;63869;52.344;16.928;2023-03-21T11:06:13;100867.75;;;16.19
75273;BMP280;63869;52.344;16.928;2023-03-21T11:08:50;100860.47;;;16.29
75273;BMP280;63869;52.344;16.928;2023-03-21T11:11:25;100863.16;;;16.50
75273;BMP280;63869;52.344;16.928;2023-03-21T11:14:03;100859.38;;;16.79
75273;BMP280;63869;52.344;16.928;2023-03-21T11:16:40;100862.16;;;16.97
75273;BMP280;63869;52.344;16.928;2023-03-21T11:19:18;100853.50;;;17.29
75273;BMP280;63869;52.344;16.928;2023-03-21T11:21:44;100861.97;;;17.50
75273;BMP280;63869;52.344;16.928;2023-03-21T11:24:15;100856.41;;;17.35
75273;BMP280;63869;52.344;16.928;2023-03-21T11:26:44;100846.91;;;17.30
75273;BMP280;63869;52.344;16.928;2023-03-21T11:29:29;100849.63;;;17.39
75273;BMP280;63869;52.344;16.928;2023-03-21T11:32:13;100850.22;;;17.25
75273;BMP280;63869;52.344;16.928;2023-03-21T11:34:46;100854.34;;;16.99
75273;BMP280;63869;52.344;16.928;2023-03-21T11:37:31;100848.88;;;16.72
75273;BMP280;63869;52.344;16.928;2023-03-21T11:42:46;100841.13;;;16.92
75273;BMP280;63869;52.344;16.928;2023-03-21T11:45:17;100841.72;;;16.96
75273;BMP280;63869;52.344;16.928;2023-03-21T11:47:42;100836.47;;;16.92
75273;BMP280;63869;52.344;16.928;2023-03-21T11:50:16;100835.28;;;16.93
75273;BMP280;63869;52.344;16.928;2023-03-21T11:52:58;100832.28;;;16.91
75273;BMP280;63869;52.344;16.928;2023-03-21T11:55:35;100830.66;;;17.03
75273;BMP280;63869;52.344;16.928;2023-03-21T12:00:53;100824.69;;;17.26
75273;BMP280;63869;52.344;16.928;2023-03-21T12:05:59;100824.09;;;17.31
75273;BMP280;63869;52.344;16.928;2023-03-21T12:08:59;100819.75;;;17.52
75273;BMP280;63869;52.344;16.928;2023-03-21T12:11:27;100811.78;;;17.58
75273;BMP280;63869;52.344;16.928;2023-03-21T12:14:07;100812.53;;;17.76
75273;BMP280;63869;52.344;16.928;2023-03-21T12:19:35;100812.03;;;18.47
75273;BMP280;63869;52.344;16.928;2023-03-21T12:22:31;100788.28;;;18.75
75273;BMP280;63869;52.344;16.928;2023-03-21T12:25:05;100797.41;;;19.25
75273;BMP280;63869;52.344;16.928;2023-03-21T12:35:48;100795.38;;;19.50
75273;BMP280;63869;52.344;16.928;2023-03-21T12:38:24;100791.44;;;19.51
75273;BMP280;63869;52.344;16.928;2023-03-21T12:41:19;100794.34;;;19.47
75273;BMP280;63869;52.344;16.928;2023-03-21T12:44:09;100789.78;;;19.15
75273;BMP280;63869;52.344;16.928;2023-03-21T12:46:38;100791.09;;;18.81
75273;BMP280;63869;52.344;16.928;2023-03-21T12:49:12;100783.88;;;18.78
75273;BMP280;63869;52.344;16.928;2023-03-21T12:51:43;100778.25;;;18.90
75273;BMP280;63869;52.344;16.928;2023-03-21T12:54:27;100777.81;;;18.83
75273;BMP280;63869;52.344;16.928;2023-03-21T12:59:54;100768.56;;;18.75
75273;BMP280;63869;52.344;16.928;2023-03-21T13:02:36;100778.50;;;18.69
75273;BMP280;63869;52.344;16.928;2023-03-21T13:05:33;100765.25;;;18.71
75273;BMP280;63869;52.344;16.928;2023-03-21T13:10:28;100758.59;;;18.81
75273;BMP280;63869;52.344;16.928;2023-03-21T13:16:01;100759.03;;;18.79
75273;BMP280;63869;52.344;16.928;2023-03-21T13:18:56;100745.63;;;18.61
75273;BMP280;63869;52.344;16.928;2023-03-21T13:21:42;100748.84;;;18.41
75273;BMP280;63869;52.344;16.928;2023-03-21T13:24:27;100745.84;;;18.15
75273;BMP280;63869;52.344;16.928;2023-03-21T13:27:05;100749.31;;;18.16
75273;BMP280;63869;52.344;16.928;2023-03-21T13:29:47;100744.03;;;18.12
75273;BMP280;63869;52.344;16.928;2023-03-21T13:32:34;100745.94;;;17.88
75273;BMP280;63869;52.344;16.928;2023-03-21T13:37:37;100728.09;;;17.72
75273;BMP280;63869;52.344;16.928;2023-03-21T13:40:11;100735.91;;;17.61
75273;BMP280;63869;52.344;16.928;2023-03-21T13:42:47;100738.19;;;17.35
75273;BMP280;63869;52.344;16.928;2023-03-21T13:45:27;100730.53;;;16.88
75273;BMP280;63869;52.344;16.928;2023-03-21T13:50:25;100732.66;;;16.53
75273;BMP280;63869;52.344;16.928;2023-03-21T13:55:29;100738.13;;;16.23
75273;BMP280;63869;52.344;16.928;2023-03-21T13:57:55;100736.41;;;16.07
75273;BMP280;63869;52.344;16.928;2023-03-21T14:00:28;100738.22;;;15.88
75273;BMP280;63869;52.344;16.928;2023-03-21T14:03:14;100736.56;;;15.81
75273;BMP280;63869;52.344;16.928;2023-03-21T14:05:48;100739.16;;;15.72
75273;BMP280;63869;52.344;16.928;2023-03-21T14:08:16;100737.91;;;15.42
75273;BMP280;63869;52.344;16.928;2023-03-21T14:10:44;100739.63;;;15.49
75273;BMP280;63869;52.344;16.928;2023-03-21T14:13:17;100724.88;;;15.63
75273;BMP280;63869;52.344;16.928;2023-03-21T14:15:46;100726.00;;;15.74
75273;BMP280;63869;52.344;16.928;2023-03-21T14:18:16;100726.63;;;15.78
75273;BMP280;63869;52.344;16.928;2023-03-21T14:20:56;100712.47;;;15.65
75273;BMP280;63869;52.344;16.928;2023-03-21T14:23:23;100720.59;;;15.74
75273;BMP280;63869;52.344;16.928;2023-03-21T14:25:49;100715.28;;;15.83
75273;BMP280;63869;52.344;16.928;2023-03-21T14:28:21;100718.81;;;15.93
75273;BMP280;63869;52.344;16.928;2023-03-21T14:30:53;100715.06;;;16.00
75273;BMP280;63869;52.344;16.928;2023-03-21T14:33:26;100707.97;;;16.15
75273;BMP280;63869;52.344;16.928;2023-03-21T14:35:58;100701.41;;;16.25
75273;BMP280;63869;52.344;16.928;2023-03-21T14:38:26;100696.03;;;16.34
75273;BMP280;63869;52.344;16.928;2023-03-21T14:40:56;100683.28;;;16.26
75273;BMP280;63869;52.344;16.928;2023-03-21T14:43:24;100690.78;;;16.31
75273;BMP280;63869;52.344;16.928;2023-03-21T14:45:52;100696.03;;;16.25
75273;BMP280;63869;52.344;16.928;2023-03-21T14:48:18;100685.78;;;16.20
75273;BMP280;63869;52.344;16.928;2023-03-21T14:50:47;100689.69;;;16.19
75273;BMP280;63869;52.344;16.928;2023-03-21T14:53:21;100690.31;;;16.32
75273;BMP280;63869;52.344;16.928;2023-03-21T14:55:58;100687.69;;;16.41
75273;BMP280;63869;52.344;16.928;2023-03-21T14:58:25;100687.69;;;16.50
75273;BMP280;63869;52.344;16.928;2023-03-21T15:00:53;100691.31;;;16.66
75273;BMP280;63869;52.344;16.928;2023-03-21T15:03:22;100689.81;;;16.55
75273;BMP280;63869;52.344;16.928;2023-03-21T15:05:48;100692.94;;;16.54
75273;BMP280;63869;52.344;16.928;2023-03-21T15:08:17;100695.63;;;16.45
75273;BMP280;63869;52.344;16.928;2023-03-21T15:10:57;100691.25;;;16.38
75273;BMP280;63869;52.344;16.928;2023-03-21T15:13:30;100690.03;;;16.30
75273;BMP280;63869;52.344;16.928;2023-03-21T15:15:57;100692.56;;;16.25
75273;BMP280;63869;52.344;16.928;2023-03-21T15:18:28;100689.19;;;16.11
75273;BMP280;63869;52.344;16.928;2023-03-21T15:20:55;100691.00;;;15.83
75273;BMP280;63869;52.344;16.928;2023-03-21T15:23:30;100692.81;;;15.77
75273;BMP280;63869;52.344;16.928;2023-03-21T15:26:01;100688.69;;;15.73
75273;BMP280;63869;52.344;16.928;2023-03-21T15:28:32;100689.59;;;15.70